createdAt,value
2022-12-15T00:00:38.289Z,32.00
2022-12-15T00:03:25.934Z,34.80
2022-12-15T00:06:12.302Z,33.43
2022-12-15T00:08:59.707Z,35.30
2022-12-15T00:11:47.370Z,35.27
2022-12-15T00:14:33.717Z,37.70
2022-12-15T00:17:20.080Z,33.43
2022-12-15T00:20:06.261Z,32.27
2022-12-15T00:22:52.580Z,31.83
2022-12-15T00:25:38.835Z,32.80
2022-12-15T00:28:26.646Z,31.83
2022-12-15T00:31:12.824Z,32.60
2022-12-15T00:33:59.196Z,30.27
2022-12-15T00:36:45.456Z,31.07
2022-12-15T00:39:19.199Z,31.73
2022-12-15T00:41:48.245Z,32.73
2022-12-15T00:44:20.713Z,37.37
2022-12-15T00:46:54.970Z,32.70
2022-12-15T00:49:42.560Z,30.93
2022-12-15T00:52:29.260Z,32.10
2022-12-15T00:55:16.023Z,32.03
2022-12-15T00:58:02.975Z,30.30
2022-12-15T01:00:52.138Z,32.37
2022-12-15T01:03:41.065Z,31.03
2022-12-15T01:06:29.911Z,30.47
2022-12-15T01:09:16.735Z,30.73
2022-12-15T01:12:04.337Z,29.90
2022-12-15T01:14:50.891Z,34.90
2022-12-15T01:17:39.473Z,28.37
2022-12-15T01:20:18.362Z,32.03
2022-12-15T01:22:48.192Z,31.43
2022-12-15T01:25:18.806Z,31.73
2022-12-15T01:27:48.022Z,30.60
2022-12-15T01:30:19.706Z,32.87
2022-12-15T01:32:50.553Z,34.80
2022-12-15T01:35:20.185Z,30.70
2022-12-15T01:37:50.044Z,31.27
2022-12-15T01:40:39.049Z,31.20
2022-12-15T01:43:13.831Z,32.57
2022-12-15T01:46:03.525Z,35.10
2022-12-15T01:48:39.427Z,28.67
2022-12-15T01:51:14.982Z,31.30
2022-12-15T01:53:50.247Z,30.77
2022-12-15T01:56:19.787Z,30.30
2022-12-15T01:58:52.515Z,32.77
2022-12-15T02:01:21.779Z,28.37
2022-12-15T02:03:52.457Z,30.43
2022-12-15T02:06:23.041Z,32.43
2022-12-15T02:08:54.290Z,37.33
2022-12-15T02:11:46.139Z,34.33
2022-12-15T02:14:22.429Z,32.00
2022-12-15T02:17:08.159Z,33.40
2022-12-15T02:20:10.392Z,32.13
2022-12-15T02:22:56.960Z,32.77
2022-12-15T02:25:44.137Z,30.30
2022-12-15T02:28:17.710Z,35.93
2022-12-15T02:31:12.811Z,28.03
2022-12-15T02:33:48.325Z,29.70
2022-12-15T02:36:26.061Z,35.90
2022-12-15T02:38:55.675Z,28.93
2022-12-15T02:41:37.183Z,29.33
2022-12-15T02:44:11.336Z,29.73
2022-12-15T02:47:05.267Z,30.53
2022-12-15T02:49:46.601Z,26.83
2022-12-15T02:52:32.363Z,28.80
2022-12-15T02:55:16.740Z,29.30
2022-12-15T02:57:54.779Z,27.60
2022-12-15T03:00:24.160Z,28.40
2022-12-15T03:02:56.828Z,30.63
2022-12-15T03:05:27.224Z,27.70
2022-12-15T03:07:57.007Z,29.33
2022-12-15T03:10:27.340Z,27.73
2022-12-15T03:12:56.355Z,28.93
2022-12-15T03:15:27.993Z,33.53
2022-12-15T03:18:00.835Z,27.60
2022-12-15T03:20:29.879Z,30.77
2022-12-15T03:22:58.937Z,27.73
2022-12-15T03:25:27.950Z,27.97
2022-12-15T03:27:57.226Z,28.93
2022-12-15T03:30:26.243Z,32.97
2022-12-15T03:32:55.266Z,31.77
2022-12-15T03:35:25.716Z,30.00
2022-12-15T03:37:54.720Z,34.53
2022-12-15T03:40:23.666Z,29.30
2022-12-15T03:42:53.014Z,28.43
2022-12-15T03:45:23.473Z,33.57
2022-12-15T03:47:53.463Z,34.43
2022-12-15T03:50:26.432Z,31.07
2022-12-15T03:52:58.091Z,32.43
2022-12-15T03:55:29.066Z,33.57
2022-12-15T03:57:59.390Z,33.20
2022-12-15T04:00:30.398Z,31.53
2022-12-15T04:02:59.676Z,36.57
2022-12-15T04:05:32.371Z,33.07
2022-12-15T04:08:03.077Z,32.03
2022-12-15T04:10:35.319Z,31.50
2022-12-15T04:13:06.056Z,32.57
2022-12-15T04:15:35.856Z,30.77
2022-12-15T04:18:06.642Z,31.43
2022-12-15T04:20:35.999Z,27.87
2022-12-15T04:23:07.967Z,34.23
2022-12-15T04:25:55.596Z,31.20
2022-12-15T04:28:42.841Z,29.37
2022-12-15T04:31:31.545Z,31.87
2022-12-15T04:34:20.381Z,27.63
2022-12-15T04:37:10.260Z,27.50
2022-12-15T04:39:59.585Z,28.00
2022-12-15T04:42:47.507Z,28.00
2022-12-15T04:45:36.035Z,30.90
2022-12-15T04:48:22.670Z,29.43
2022-12-15T04:51:09.081Z,30.43
2022-12-15T04:53:56.906Z,29.00
2022-12-15T04:56:43.342Z,32.17
2022-12-15T04:59:29.770Z,31.73
2022-12-15T05:02:16.350Z,34.87
2022-12-15T05:05:02.659Z,29.37
2022-12-15T05:07:49.520Z,32.43
2022-12-15T05:10:37.587Z,31.13
2022-12-15T05:13:24.992Z,32.53
2022-12-15T05:16:11.235Z,35.60
2022-12-15T05:18:58.167Z,33.70
2022-12-15T05:21:44.441Z,36.27
2022-12-15T05:24:30.716Z,33.90
2022-12-15T05:27:18.747Z,34.20
2022-12-15T05:30:05.223Z,35.47
2022-12-15T05:32:34.324Z,34.80
2022-12-15T05:35:03.399Z,34.77
2022-12-15T05:37:32.486Z,33.83
2022-12-15T05:40:01.501Z,35.37
2022-12-15T05:42:32.006Z,35.97
2022-12-15T05:45:01.017Z,35.90
2022-12-15T05:47:30.042Z,34.87
2022-12-15T05:49:59.012Z,34.60
2022-12-15T05:52:28.124Z,33.07
2022-12-15T05:54:57.222Z,33.33
2022-12-15T05:57:26.299Z,35.03
2022-12-15T05:59:56.879Z,37.47
2022-12-15T06:02:25.960Z,35.33
2022-12-15T06:04:55.107Z,40.03
2022-12-15T06:07:24.348Z,37.43
2022-12-15T06:09:53.344Z,39.17
2022-12-15T06:12:22.422Z,38.80
2022-12-15T06:14:51.434Z,41.93
2022-12-15T06:17:22.132Z,39.23
2022-12-15T06:19:51.095Z,38.90
2022-12-15T06:22:20.119Z,37.30
2022-12-15T06:24:49.178Z,40.50
2022-12-15T06:27:18.167Z,39.33
2022-12-15T06:29:47.222Z,37.17
2022-12-15T06:32:16.279Z,39.97
2022-12-15T06:34:46.775Z,40.70
2022-12-15T06:37:15.808Z,43.87
2022-12-15T06:39:44.925Z,39.53
2022-12-15T06:42:14.858Z,43.17
2022-12-15T06:44:43.949Z,42.23
2022-12-15T06:47:13.049Z,40.37
2022-12-15T06:49:42.205Z,42.70
2022-12-15T06:52:12.646Z,37.90
2022-12-15T06:54:41.716Z,41.83
2022-12-15T06:57:11.049Z,39.93
2022-12-15T06:59:40.085Z,43.87
2022-12-15T07:02:16.929Z,40.87
2022-12-15T07:04:46.219Z,44.60
2022-12-15T07:07:16.682Z,43.57
2022-12-15T07:09:45.701Z,44.70
2022-12-15T07:12:14.967Z,42.63
2022-12-15T07:14:47.473Z,41.33
2022-12-15T07:17:22.293Z,45.33
2022-12-15T07:19:51.370Z,49.40
2022-12-15T07:22:22.985Z,45.17
2022-12-15T07:24:51.994Z,42.67
2022-12-15T07:27:21.018Z,46.27
2022-12-15T07:29:50.019Z,49.97
2022-12-15T07:32:19.039Z,44.23
2022-12-15T07:34:48.193Z,44.40
2022-12-15T07:37:17.618Z,41.87
2022-12-15T07:39:48.993Z,45.07
2022-12-15T07:42:18.038Z,43.47
2022-12-15T07:44:47.061Z,45.47
2022-12-15T07:47:19.227Z,45.07
2022-12-15T07:49:48.311Z,47.23
2022-12-15T07:52:17.558Z,38.30
2022-12-15T07:54:48.195Z,42.13
2022-12-15T07:57:17.605Z,44.20
2022-12-15T07:59:46.659Z,40.33
2022-12-15T08:02:16.338Z,36.73
2022-12-15T08:04:45.860Z,45.60
2022-12-15T08:07:15.092Z,39.90
2022-12-15T08:09:44.151Z,41.57
2022-12-15T08:12:14.651Z,40.37
2022-12-15T08:14:43.830Z,43.00
2022-12-15T08:17:17.376Z,40.27
2022-12-15T08:19:46.456Z,40.83
2022-12-15T08:22:15.921Z,40.27
2022-12-15T08:24:45.112Z,38.87
2022-12-15T08:27:15.649Z,38.63
2022-12-15T08:29:52.532Z,41.77
2022-12-15T08:32:23.088Z,35.43
2022-12-15T08:34:52.358Z,36.57
2022-12-15T08:37:21.499Z,35.50
2022-12-15T08:39:50.874Z,33.17
2022-12-15T08:42:21.466Z,37.77
2022-12-15T08:44:51.133Z,40.50
2022-12-15T08:47:20.231Z,37.77
2022-12-15T08:49:50.444Z,38.63
2022-12-15T08:52:19.540Z,40.60
2022-12-15T08:54:48.876Z,36.47
2022-12-15T08:57:18.020Z,42.07
2022-12-15T08:59:48.573Z,40.37
2022-12-15T09:02:17.859Z,38.60
2022-12-15T09:04:47.075Z,33.53
2022-12-15T09:07:16.167Z,39.37
2022-12-15T09:09:45.277Z,36.67
2022-12-15T09:12:14.735Z,35.53
2022-12-15T09:14:43.796Z,36.60
2022-12-15T09:17:14.458Z,37.53
2022-12-15T09:19:43.599Z,34.93
2022-12-15T09:22:12.681Z,43.27
2022-12-15T09:24:41.856Z,39.33
2022-12-15T09:27:11.169Z,41.23
2022-12-15T09:29:40.883Z,42.77
2022-12-15T09:32:14.009Z,43.20
2022-12-15T09:34:45.026Z,44.43
2022-12-15T09:37:14.127Z,50.90
2022-12-15T09:39:43.228Z,47.43
2022-12-15T09:42:24.772Z,46.90
2022-12-15T09:45:02.319Z,44.30
2022-12-15T09:47:41.909Z,44.37
2022-12-15T09:50:15.531Z,45.10
2022-12-15T09:52:49.862Z,48.63
2022-12-15T09:55:22.574Z,47.53
2022-12-15T09:57:55.464Z,50.77
2022-12-15T10:00:26.193Z,48.00
2022-12-15T10:03:30.438Z,56.73
2022-12-15T10:09:00.338Z,51.43
2022-12-15T10:11:50.289Z,50.87
2022-12-15T10:14:29.695Z,49.60
2022-12-15T10:17:06.841Z,44.77
2022-12-15T10:19:40.898Z,41.20
2022-12-15T10:22:16.859Z,40.70
2022-12-15T10:28:11.134Z,43.83
2022-12-15T10:30:51.896Z,36.33
2022-12-15T10:33:24.450Z,34.00
2022-12-15T10:35:55.334Z,38.90
2022-12-15T10:38:33.648Z,36.03
2022-12-15T10:41:05.937Z,35.43
2022-12-15T10:43:37.558Z,37.13
2022-12-15T10:46:14.140Z,37.60
2022-12-15T10:48:44.346Z,39.87
2022-12-15T10:51:23.242Z,37.83
2022-12-15T10:53:55.521Z,40.27
2022-12-15T10:56:33.309Z,40.00
2022-12-15T10:59:05.001Z,41.10
2022-12-15T11:01:36.165Z,44.93
2022-12-15T11:04:05.642Z,48.67
2022-12-15T11:06:37.161Z,47.00
2022-12-15T11:09:26.753Z,52.10
2022-12-15T11:12:13.683Z,50.17
2022-12-15T11:14:47.968Z,53.57
2022-12-15T11:17:18.742Z,42.00
2022-12-15T11:20:00.039Z,47.63
2022-12-15T11:22:41.631Z,49.40
2022-12-15T11:25:24.247Z,50.30
2022-12-15T11:27:57.921Z,50.53
2022-12-15T11:30:32.868Z,54.90
2022-12-15T11:33:03.528Z,56.97
2022-12-15T11:35:51.550Z,50.80
2022-12-15T11:38:26.009Z,53.13
2022-12-15T11:40:57.778Z,60.23
2022-12-15T11:43:44.579Z,59.20
2022-12-15T11:46:23.006Z,62.03
2022-12-15T11:49:13.420Z,64.27
2022-12-15T11:51:46.871Z,64.57
2022-12-15T11:54:27.012Z,65.23
2022-12-15T11:57:04.537Z,61.57
2022-12-15T12:00:03.406Z,64.47
2022-12-15T12:02:58.206Z,64.83
2022-12-15T12:05:53.204Z,62.17
2022-12-15T12:08:43.216Z,61.57
2022-12-15T12:11:15.710Z,63.53
2022-12-15T12:14:02.534Z,64.40
2022-12-15T12:16:41.636Z,65.50
2022-12-15T12:19:15.199Z,62.73
2022-12-15T12:21:51.054Z,64.23
2022-12-15T12:24:25.412Z,66.63
2022-12-15T12:27:00.684Z,63.47
2022-12-15T12:29:35.439Z,59.97
2022-12-15T12:32:11.602Z,64.97
2022-12-15T12:35:29.763Z,60.80
2022-12-15T12:37:56.862Z,64.13
2022-12-15T12:40:36.939Z,65.47
2022-12-15T12:43:11.838Z,69.77
2022-12-15T12:45:51.051Z,68.30
2022-12-15T12:48:28.459Z,64.27
2022-12-15T12:51:27.660Z,63.70
2022-12-15T12:53:57.382Z,64.27
2022-12-15T12:56:33.657Z,71.27
2022-12-15T12:59:08.020Z,67.80
2022-12-15T13:01:39.520Z,66.50
2022-12-15T13:04:12.389Z,61.53
2022-12-15T13:07:11.515Z,63.60
2022-12-15T13:09:43.244Z,61.33
2022-12-15T13:15:42.746Z,62.13
2022-12-15T13:18:18.746Z,73.70
2022-12-15T13:20:50.789Z,61.73
2022-12-15T13:23:41.639Z,64.27
2022-12-15T13:26:16.212Z,59.03
2022-12-15T13:28:53.290Z,58.90
2022-12-15T13:31:43.301Z,57.80
2022-12-15T13:34:23.520Z,54.13
2022-12-15T13:36:57.706Z,53.77
2022-12-15T13:39:57.962Z,49.63
2022-12-15T13:42:41.556Z,50.60
2022-12-15T13:45:34.637Z,47.07
2022-12-15T13:48:13.865Z,48.83
2022-12-15T13:50:51.334Z,50.03
2022-12-15T13:53:25.557Z,53.53
2022-12-15T13:56:08.508Z,55.27
2022-12-15T13:58:43.060Z,59.63
2022-12-15T14:01:28.622Z,57.70
2022-12-15T14:04:12.875Z,54.27
2022-12-15T14:06:50.952Z,53.30
2022-12-15T14:09:23.976Z,55.37
2022-12-15T14:11:54.321Z,51.63
2022-12-15T14:14:29.235Z,53.57
2022-12-15T14:17:01.628Z,56.83
2022-12-15T14:19:40.405Z,47.90
2022-12-15T14:22:28.640Z,48.57
2022-12-15T14:25:05.179Z,50.20
2022-12-15T14:27:35.467Z,49.70
2022-12-15T14:30:26.526Z,47.17
2022-12-15T14:33:00.426Z,49.50
2022-12-15T14:35:33.046Z,44.80
2022-12-15T14:38:08.057Z,47.30
2022-12-15T14:40:39.175Z,46.97
2022-12-15T14:43:13.468Z,49.60
2022-12-15T14:45:42.814Z,49.47
2022-12-15T14:51:02.579Z,52.60
2022-12-15T14:53:37.748Z,47.47
2022-12-15T14:56:30.008Z,46.60
2022-12-15T14:59:04.203Z,50.87
2022-12-15T15:01:40.440Z,49.40
2022-12-15T15:03:05.230Z,67.20
2022-12-15T15:03:10.108Z,49.67
2022-12-15T15:04:25.966Z,50.70
2022-12-15T15:06:57.358Z,46.83
2022-12-15T15:09:30.332Z,46.97
2022-12-15T15:12:03.962Z,50.40
2022-12-15T15:14:34.848Z,58.47
2022-12-15T15:17:17.265Z,51.00
2022-12-15T15:19:50.933Z,47.57
2022-12-15T15:22:45.544Z,49.70
2022-12-15T15:25:41.564Z,52.63
2022-12-15T15:28:24.033Z,48.80
2022-12-15T15:30:56.686Z,43.67
2022-12-15T15:33:27.047Z,45.40
2022-12-15T15:35:58.531Z,44.80
2022-12-15T15:38:31.254Z,44.90
2022-12-15T15:41:03.907Z,39.00
2022-12-15T15:43:32.923Z,43.97
2022-12-15T15:46:05.918Z,45.87
2022-12-15T15:48:37.455Z,45.97
2022-12-15T15:51:07.475Z,44.43
2022-12-15T15:53:37.149Z,51.33
2022-12-15T15:56:12.191Z,38.97
2022-12-15T15:58:43.133Z,40.83
2022-12-15T16:01:13.873Z,47.07
2022-12-15T16:03:43.556Z,47.57
2022-12-15T16:06:18.519Z,63.20
2022-12-15T16:08:50.279Z,63.23
2022-12-15T16:11:21.919Z,58.00
2022-12-15T16:13:51.032Z,55.00
2022-12-15T16:16:22.330Z,59.97
2022-12-15T16:18:51.396Z,49.77
2022-12-15T16:21:24.346Z,53.90
2022-12-15T16:23:54.357Z,51.70
2022-12-15T16:26:29.181Z,48.77
2022-12-15T16:28:58.442Z,51.17
2022-12-15T16:31:35.632Z,51.83
2022-12-15T16:34:08.106Z,49.60
2022-12-15T16:36:37.259Z,49.60
2022-12-15T16:39:06.840Z,45.23
2022-12-15T16:41:37.652Z,45.93
2022-12-15T16:44:12.417Z,44.17
2022-12-15T16:46:41.597Z,46.23
2022-12-15T16:49:10.916Z,47.60
2022-12-15T16:51:42.020Z,50.27
2022-12-15T16:54:18.253Z,45.20
2022-12-15T16:56:49.081Z,48.10
2022-12-15T16:59:36.235Z,46.37
2022-12-15T17:02:28.237Z,48.47
2022-12-15T17:04:57.763Z,49.70
2022-12-15T17:07:28.404Z,48.63
2022-12-15T17:09:58.139Z,48.40
2022-12-15T17:12:28.715Z,47.30
2022-12-15T17:14:58.958Z,49.83
2022-12-15T17:17:29.146Z,48.73
2022-12-15T17:20:27.872Z,47.17
2022-12-15T17:22:49.081Z,47.73
2022-12-15T17:25:32.006Z,45.63
2022-12-15T17:28:18.594Z,48.57
2022-12-15T17:30:48.725Z,53.80
2022-12-15T17:33:23.444Z,50.07
2022-12-15T17:35:55.379Z,47.03
2022-12-15T17:38:25.576Z,44.97
2022-12-15T17:40:58.583Z,43.23
2022-12-15T17:43:35.370Z,48.40
2022-12-15T17:46:05.330Z,42.90
2022-12-15T17:48:36.345Z,46.90
2022-12-15T17:51:14.475Z,43.43
2022-12-15T17:53:45.443Z,40.53
2022-12-15T17:56:17.385Z,45.70
2022-12-15T17:58:48.316Z,45.60
2022-12-15T18:01:17.880Z,46.50
2022-12-15T18:03:47.657Z,45.73
2022-12-15T18:06:18.466Z,48.53
2022-12-15T18:08:48.043Z,47.40
2022-12-15T18:11:18.756Z,44.80
2022-12-15T18:13:52.817Z,45.90
2022-12-15T18:16:22.785Z,43.63
2022-12-15T18:18:52.878Z,45.53
2022-12-15T18:21:22.545Z,45.53
2022-12-15T18:23:52.397Z,45.03
2022-12-15T18:26:21.662Z,48.63
2022-12-15T18:28:52.881Z,46.83
2022-12-15T18:31:26.450Z,44.33
2022-12-15T18:34:01.001Z,45.30
2022-12-15T18:36:31.859Z,48.20
2022-12-15T18:39:02.880Z,46.10
2022-12-15T18:41:32.045Z,46.67
2022-12-15T18:44:03.546Z,41.93
2022-12-15T18:46:34.241Z,43.10
2022-12-15T18:49:05.599Z,47.40
2022-12-15T18:51:36.239Z,46.20
2022-12-15T18:54:05.677Z,43.17
2022-12-15T18:56:35.174Z,44.37
2022-12-15T18:59:07.301Z,41.30
2022-12-15T19:01:36.973Z,44.73
2022-12-15T19:04:09.762Z,43.00
2022-12-15T19:06:41.144Z,43.07
2022-12-15T19:09:17.389Z,45.60
2022-12-15T19:12:17.909Z,46.40
2022-12-15T19:14:50.470Z,44.70
2022-12-15T19:17:38.925Z,41.70
2022-12-15T19:20:35.018Z,46.63
2022-12-15T19:23:05.611Z,44.73
2022-12-15T19:25:35.962Z,43.23
2022-12-15T19:28:14.485Z,40.27
2022-12-15T19:30:45.868Z,44.50
2022-12-15T19:33:17.008Z,49.23
2022-12-15T19:35:50.719Z,47.10
2022-12-15T19:38:25.265Z,51.93
2022-12-15T19:40:56.376Z,41.57
2022-12-15T19:43:28.020Z,43.10
2022-12-15T19:45:59.563Z,41.47
2022-12-15T19:48:30.366Z,41.93
2022-12-15T19:51:00.936Z,44.27
2022-12-15T19:53:33.414Z,42.27
2022-12-15T19:56:03.700Z,39.63
2022-12-15T19:58:35.563Z,50.10
2022-12-15T20:01:13.253Z,47.93
2022-12-15T20:03:44.318Z,39.80
2022-12-15T20:06:18.180Z,40.87
2022-12-15T20:08:50.718Z,39.03
2022-12-15T20:11:22.849Z,34.80
2022-12-15T20:13:56.856Z,37.83
2022-12-15T20:16:29.069Z,40.23
2022-12-15T20:18:59.701Z,39.90
2022-12-15T20:21:33.690Z,38.43
2022-12-15T20:24:09.059Z,37.50
2022-12-15T20:26:40.162Z,38.70
2022-12-15T20:29:24.810Z,38.67
2022-12-15T20:31:56.550Z,39.77
2022-12-15T20:34:26.389Z,36.77
2022-12-15T20:36:55.899Z,35.43
2022-12-15T20:39:30.440Z,39.13
2022-12-15T20:42:00.563Z,40.37
2022-12-15T20:44:30.002Z,36.80
2022-12-15T20:47:02.500Z,36.17
2022-12-15T20:49:32.365Z,39.00
2022-12-15T20:52:02.242Z,30.57
2022-12-15T20:54:32.601Z,36.23
2022-12-15T20:57:02.204Z,35.23
2022-12-15T20:59:31.751Z,35.33
2022-12-15T21:02:02.815Z,34.97
2022-12-15T21:04:33.385Z,34.77
2022-12-15T21:07:02.623Z,34.73
2022-12-15T21:09:32.061Z,38.40
2022-12-15T21:12:05.904Z,31.87
2022-12-15T21:14:38.162Z,36.67
2022-12-15T21:17:11.958Z,37.43
2022-12-15T21:19:41.299Z,39.67
2022-12-15T21:22:18.922Z,35.60
2022-12-15T21:24:48.012Z,38.80
2022-12-15T21:27:17.282Z,38.93
2022-12-15T21:29:52.328Z,39.53
2022-12-15T21:32:23.243Z,42.37
2022-12-15T21:34:52.303Z,46.00
2022-12-15T21:37:27.031Z,44.70
2022-12-15T21:39:56.901Z,45.73
2022-12-15T21:42:26.486Z,49.50
2022-12-15T21:44:55.594Z,47.83
2022-12-15T21:47:48.062Z,47.40
2022-12-15T21:50:17.344Z,49.80
2022-12-15T21:52:47.317Z,52.70
2022-12-15T21:55:18.000Z,62.77
2022-12-15T21:57:47.401Z,53.30
2022-12-15T22:00:18.885Z,56.23
2022-12-15T22:02:51.488Z,58.17
2022-12-15T22:05:22.437Z,54.43
2022-12-15T22:07:52.315Z,67.67
2022-12-15T22:10:21.307Z,64.37
2022-12-15T22:15:41.944Z,68.90
2022-12-15T22:18:19.834Z,61.00
2022-12-15T22:20:50.128Z,63.30
2022-12-15T22:23:20.474Z,53.37
2022-12-15T22:25:52.665Z,54.50
2022-12-15T22:28:26.380Z,54.27
2022-12-15T22:30:57.220Z,50.83
2022-12-15T22:33:29.573Z,51.43
2022-12-15T22:35:58.616Z,52.73
2022-12-15T22:38:27.680Z,52.43
2022-12-15T22:40:59.501Z,49.00
2022-12-15T22:43:35.721Z,45.67
2022-12-15T22:46:06.627Z,53.60
2022-12-15T22:48:40.166Z,50.87
2022-12-15T22:51:13.500Z,45.30
2022-12-15T22:53:43.058Z,47.80
2022-12-15T22:56:25.560Z,48.43
2022-12-15T22:58:59.607Z,49.30
2022-12-15T23:01:29.295Z,54.10
2022-12-15T23:03:59.881Z,52.57
2022-12-15T23:06:29.462Z,49.70
2022-12-15T23:08:58.467Z,55.47
2022-12-15T23:11:38.767Z,58.73
2022-12-15T23:14:09.780Z,54.23
2022-12-15T23:16:38.440Z,55.70
2022-12-15T23:19:09.860Z,58.40
2022-12-15T23:21:39.374Z,54.33
2022-12-15T23:24:09.581Z,59.67
2022-12-15T23:26:38.576Z,52.70
2022-12-15T23:29:07.899Z,57.30
2022-12-15T23:31:36.986Z,56.43
2022-12-15T23:34:07.480Z,56.03
2022-12-15T23:36:36.477Z,51.23
2022-12-15T23:39:05.678Z,55.50
2022-12-15T23:41:34.776Z,55.50
2022-12-15T23:44:03.920Z,54.90
2022-12-15T23:46:33.028Z,58.57
2022-12-15T23:49:02.039Z,56.93
2022-12-15T23:51:32.505Z,53.07
2022-12-15T23:54:01.498Z,52.20
2022-12-15T23:56:30.465Z,52.83
2022-12-15T23:59:00.792Z,50.37
